sensor_id;sensor_type;location;lat;lon;timestamp;pressure;altitude;pressure_sealevel;temperature;humidity
15634;BME280;14654;48.898;8.308;2023-04-15T00:01:48;99336.28;;;4.50;100.00
15634;BME280;14654;48.898;8.308;2023-04-15T00:04:13;99340.56;;;4.51;100.00
15634;BME280;14654;48.898;8.308;2023-04-15T00:06:38;99334.59;;;4.52;100.00
15634;BME280;14654;48.898;8.308;2023-04-15T00:09:05;99338.03;;;4.53;100.00
15634;BME280;14654;48.898;8.308;2023-04-15T00:11:30;99337.16;;;4.52;100.00
15634;BME280;14654;48.898;8.308;2023-04-15T00:13:55;99333.72;;;4.47;100.00
15634;BME280;14654;48.898;8.308;2023-04-15T00:16:21;99333.72;;;4.41;100.00
15634;BME280;14654;48.898;8.308;2023-04-15T00:18:46;99329.44;;;4.37;100.00
15634;BME280;14654;48.898;8.308;2023-04-15T00:21:11;99329.47;;;4.31;100.00
15634;BME280;14654;48.898;8.308;2023-04-15T00:23:37;99330.28;;;4.28;100.00
15634;BME280;14654;48.898;8.308;2023-04-15T00:26:02;99326.88;;;4.24;100.00
15634;BME280;14654;48.898;8.308;2023-04-15T00:28:28;99333.72;;;4.22;100.00
15634;BME280;14654;48.898;8.308;2023-04-15T00:30:53;99328.56;;;4.19;100.00
15634;BME280;14654;48.898;8.308;2023-04-15T00:33:19;99326.03;;;4.18;100.00
15634;BME280;14654;48.898;8.308;2023-04-15T00:35:44;99325.16;;;4.17;100.00
15634;BME280;14654;48.898;8.308;2023-04-15T00:38:09;99322.59;;;4.17;100.00
15634;BME280;14654;48.898;8.308;2023-04-15T00:40:35;99314.91;;;4.20;100.00
15634;BME280;14654;48.898;8.308;2023-04-15T00:43:01;99318.34;;;4.19;100.00
15634;BME280;14654;48.898;8.308;2023-04-15T00:45:27;99320.03;;;4.20;100.00
15634;BME280;14654;48.898;8.308;2023-04-15T00:47:52;99324.34;;;4.23;100.00
15634;BME280;14654;48.898;8.308;2023-04-15T00:50:18;99321.78;;;4.23;100.00
15634;BME280;14654;48.898;8.308;2023-04-15T00:52:43;99322.59;;;4.25;100.00
15634;BME280;14654;48.898;8.308;2023-04-15T00:55:09;99323.47;;;4.27;100.00
15634;BME280;14654;48.898;8.308;2023-04-15T00:57:35;99326.03;;;4.29;100.00
15634;BME280;14654;48.898;8.308;2023-04-15T01:00:01;99323.47;;;4.29;100.00
15634;BME280;14654;48.898;8.308;2023-04-15T01:02:28;99316.66;;;4.32;100.00
15634;BME280;14654;48.898;8.308;2023-04-15T01:04:55;99326.03;;;4.33;100.00
15634;BME280;14654;48.898;8.308;2023-04-15T01:07:21;99314.06;;;4.34;100.00
15634;BME280;14654;48.898;8.308;2023-04-15T01:09:46;99320.91;;;4.33;100.00
15634;BME280;14654;48.898;8.308;2023-04-15T01:12:13;99320.06;;;4.31;100.00
15634;BME280;14654;48.898;8.308;2023-04-15T01:14:39;99319.19;;;4.29;100.00
15634;BME280;14654;48.898;8.308;2023-04-15T01:17:05;99316.66;;;4.27;100.00
15634;BME280;14654;48.898;8.308;2023-04-15T01:19:31;99316.63;;;4.29;100.00
15634;BME280;14654;48.898;8.308;2023-04-15T01:21:57;99318.34;;;4.32;100.00
15634;BME280;14654;48.898;8.308;2023-04-15T01:24:22;99314.09;;;4.37;100.00
15634;BME280;14654;48.898;8.308;2023-04-15T01:26:50;99320.06;;;4.40;100.00
15634;BME280;14654;48.898;8.308;2023-04-15T01:29:16;99314.94;;;4.42;100.00
15634;BME280;14654;48.898;8.308;2023-04-15T01:31:52;99314.09;;;4.43;100.00
15634;BME280;14654;48.898;8.308;2023-04-15T01:34:19;99314.94;;;4.42;100.00
15634;BME280;14654;48.898;8.308;2023-04-15T01:36:45;99311.53;;;4.40;100.00
15634;BME280;14654;48.898;8.308;2023-04-15T01:39:11;99320.06;;;4.37;100.00
15634;BME280;14654;48.898;8.308;2023-04-15T01:41:36;99317.50;;;4.33;100.00
15634;BME280;14654;48.898;8.308;2023-04-15T01:44:02;99314.09;;;4.27;100.00
15634;BME280;14654;48.898;8.308;2023-04-15T01:46:27;99316.66;;;4.23;100.00
15634;BME280;14654;48.898;8.308;2023-04-15T01:48:52;99306.38;;;4.17;100.00
15634;BME280;14654;48.898;8.308;2023-04-15T01:51:18;99315.75;;;4.11;100.00
15634;BME280;14654;48.898;8.308;2023-04-15T01:53:43;99307.22;;;4.05;100.00
15634;BME280;14654;48.898;8.308;2023-04-15T01:56:08;99307.22;;;3.99;100.00
15634;BME280;14654;48.898;8.308;2023-04-15T01:58:34;99316.56;;;3.90;100.00
15634;BME280;14654;48.898;8.308;2023-04-15T02:00:59;99327.66;;;3.85;100.00
15634;BME280;14654;48.898;8.308;2023-04-15T02:03:27;99334.47;;;3.81;100.00
15634;BME280;14654;48.898;8.308;2023-04-15T02:05:53;99331.03;;;3.76;100.00
15634;BME280;14654;48.898;8.308;2023-04-15T02:08:19;99325.91;;;3.73;100.00
15634;BME280;14654;48.898;8.308;2023-04-15T02:10:44;99331.84;;;3.67;100.00
15634;BME280;14654;48.898;8.308;2023-04-15T02:13:09;99329.28;;;3.61;100.00
15634;BME280;14654;48.898;8.308;2023-04-15T02:15:35;99330.13;;;3.60;100.00
15634;BME280;14654;48.898;8.308;2023-04-15T02:18:00;99329.28;;;3.58;100.00
15634;BME280;14654;48.898;8.308;2023-04-15T02:20:27;99330.09;;;3.54;100.00
15634;BME280;14654;48.898;8.308;2023-04-15T02:22:52;99334.31;;;3.48;100.00
15634;BME280;14654;48.898;8.308;2023-04-15T02:25:17;99336.91;;;3.45;100.00
15634;BME280;14654;48.898;8.308;2023-04-15T02:27:44;99336.00;;;3.42;100.00
15634;BME280;14654;48.898;8.308;2023-04-15T02:30:10;99338.56;;;3.40;100.00
15634;BME280;14654;48.898;8.308;2023-04-15T02:32:35;99330.88;;;3.42;100.00
15634;BME280;14654;48.898;8.308;2023-04-15T02:35:06;99324.06;;;3.41;100.00
15634;BME280;14654;48.898;8.308;2023-04-15T02:37:34;99330.88;;;3.42;100.00
15634;BME280;14654;48.898;8.308;2023-04-15T02:40:08;99337.72;;;3.41;100.00
15634;BME280;14654;48.898;8.308;2023-04-15T02:42:35;99330.03;;;3.38;100.00
15634;BME280;14654;48.898;8.308;2023-04-15T02:45:01;99333.44;;;3.37;100.00
15634;BME280;14654;48.898;8.308;2023-04-15T02:47:27;99333.44;;;3.35;100.00
15634;BME280;14654;48.898;8.308;2023-04-15T02:49:52;99336.81;;;3.31;100.00
15634;BME280;14654;48.898;8.308;2023-04-15T02:52:17;99333.41;;;3.32;100.00
15634;BME280;14654;48.898;8.308;2023-04-15T02:54:43;99330.00;;;3.32;100.00
15634;BME280;14654;48.898;8.308;2023-04-15T02:57:08;99338.53;;;3.32;100.00
15634;BME280;14654;48.898;8.308;2023-04-15T02:59:35;99335.09;;;3.30;100.00
15634;BME280;14654;48.898;8.308;2023-04-15T03:02:00;99332.53;;;3.24;100.00
15634;BME280;14654;48.898;8.308;2023-04-15T03:04:26;99337.59;;;3.18;100.00
15634;BME280;14654;48.898;8.308;2023-04-15T03:06:54;99338.41;;;3.12;100.00
15634;BME280;14654;48.898;8.308;2023-04-15T03:09:19;99330.72;;;3.08;100.00
15634;BME280;14654;48.898;8.308;2023-04-15T03:11:44;99340.94;;;3.04;100.00
15634;BME280;14654;48.898;8.308;2023-04-15T03:14:10;99345.16;;;3.04;100.00
15634;BME280;14654;48.898;8.308;2023-04-15T03:16:35;99342.63;;;3.02;100.00
15634;BME280;14654;48.898;8.308;2023-04-15T03:19:00;99346.00;;;2.98;100.00
15634;BME280;14654;48.898;8.308;2023-04-15T03:21:25;99346.84;;;2.96;100.00
15634;BME280;14654;48.898;8.308;2023-04-15T03:23:51;99343.41;;;2.92;100.00
15634;BME280;14654;48.898;8.308;2023-04-15T03:26:27;99343.34;;;2.87;100.00
15634;BME280;14654;48.898;8.308;2023-04-15T03:28:53;99339.94;;;2.82;100.00
15634;BME280;14654;48.898;8.308;2023-04-15T03:31:19;99343.28;;;2.78;100.00
15634;BME280;14654;48.898;8.308;2023-04-15T03:33:44;99337.31;;;2.74;100.00
15634;BME280;14654;48.898;8.308;2023-04-15T03:36:09;99337.28;;;2.73;100.00
15634;BME280;14654;48.898;8.308;2023-04-15T03:38:35;99336.44;;;2.71;100.00
15634;BME280;14654;48.898;8.308;2023-04-15T03:41:00;99335.56;;;2.70;100.00
15634;BME280;14654;48.898;8.308;2023-04-15T03:43:25;99340.66;;;2.67;100.00
15634;BME280;14654;48.898;8.308;2023-04-15T03:45:51;99336.38;;;2.65;100.00
15634;BME280;14654;48.898;8.308;2023-04-15T03:48:16;99341.47;;;2.62;100.00
15634;BME280;14654;48.898;8.308;2023-04-15T03:50:41;99344.81;;;2.57;100.00
15634;BME280;14654;48.898;8.308;2023-04-15T03:53:07;99338.00;;;2.55;100.00
15634;BME280;14654;48.898;8.308;2023-04-15T03:55:32;99343.97;;;2.54;100.00
15634;BME280;14654;48.898;8.308;2023-04-15T03:57:57;99339.69;;;2.51;100.00
15634;BME280;14654;48.898;8.308;2023-04-15T04:00:22;99343.03;;;2.47;100.00
15634;BME280;14654;48.898;8.308;2023-04-15T04:02:48;99342.16;;;2.43;100.00
15634;BME280;14654;48.898;8.308;2023-04-15T04:05:14;99341.28;;;2.40;100.00
15634;BME280;14654;48.898;8.308;2023-04-15T04:07:39;99345.53;;;2.38;100.00
15634;BME280;14654;48.898;8.308;2023-04-15T04:10:05;99337.84;;;2.35;100.00
15634;BME280;14654;48.898;8.308;2023-04-15T04:12:31;99348.06;;;2.33;100.00
15634;BME280;14654;48.898;8.308;2023-04-15T04:14:56;99348.84;;;2.29;100.00
15634;BME280;14654;48.898;8.308;2023-04-15T04:17:21;99352.25;;;2.26;100.00
15634;BME280;14654;48.898;8.308;2023-04-15T04:19:47;99352.25;;;2.26;100.00
15634;BME280;14654;48.898;8.308;2023-04-15T04:22:12;99353.09;;;2.25;100.00
15634;BME280;14654;48.898;8.308;2023-04-15T04:24:37;99352.25;;;2.26;100.00
15634;BME280;14654;48.898;8.308;2023-04-15T04:27:03;99350.53;;;2.28;100.00
15634;BME280;14654;48.898;8.308;2023-04-15T04:29:28;99348.88;;;2.32;100.00
15634;BME280;14654;48.898;8.308;2023-04-15T04:31:53;99353.16;;;2.36;100.00
15634;BME280;14654;48.898;8.308;2023-04-15T04:34:18;99342.13;;;2.39;100.00
15634;BME280;14654;48.898;8.308;2023-04-15T04:36:44;99348.09;;;2.39;100.00
15634;BME280;14654;48.898;8.308;2023-04-15T04:39:09;99358.34;;;2.41;100.00
15634;BME280;14654;48.898;8.308;2023-04-15T04:41:35;99358.31;;;2.39;100.00
15634;BME280;14654;48.898;8.308;2023-04-15T04:44:00;99361.72;;;2.40;100.00
15634;BME280;14654;48.898;8.308;2023-04-15T04:46:25;99362.59;;;2.42;100.00
15634;BME280;14654;48.898;8.308;2023-04-15T04:48:51;99356.63;;;2.43;100.00
15634;BME280;14654;48.898;8.308;2023-04-15T04:51:18;99362.63;;;2.47;100.00
15634;BME280;14654;48.898;8.308;2023-04-15T04:53:43;99363.50;;;2.52;100.00
15634;BME280;14654;48.898;8.308;2023-04-15T04:56:08;99369.50;;;2.54;100.00
15634;BME280;14654;48.898;8.308;2023-04-15T04:58:33;99368.69;;;2.58;100.00
15634;BME280;14654;48.898;8.308;2023-04-15T05:00:59;99365.28;;;2.61;100.00
15634;BME280;14654;48.898;8.308;2023-04-15T05:03:24;99367.88;;;2.64;100.00
15634;BME280;14654;48.898;8.308;2023-04-15T05:05:50;99370.50;;;2.70;100.00
15634;BME280;14654;48.898;8.308;2023-04-15T05:08:15;99368.00;;;2.78;100.00
15634;BME280;14654;48.898;8.308;2023-04-15T05:10:41;99369.78;;;2.86;100.00
15634;BME280;14654;48.898;8.308;2023-04-15T05:13:06;99374.13;;;3.00;100.00
15634;BME280;14654;48.898;8.308;2023-04-15T05:15:31;99371.69;;;3.18;100.00
15634;BME280;14654;48.898;8.308;2023-04-15T05:17:59;99375.25;;;3.47;100.00
15634;BME280;14654;48.898;8.308;2023-04-15T05:20:24;99382.19;;;3.71;100.00
15634;BME280;14654;48.898;8.308;2023-04-15T05:22:49;99379.78;;;4.01;100.00
15634;BME280;14654;48.898;8.308;2023-04-15T05:25:15;99380.69;;;4.35;100.00
15634;BME280;14654;48.898;8.308;2023-04-15T05:27:41;99375.59;;;4.60;100.00
15634;BME280;14654;48.898;8.308;2023-04-15T05:30:06;99377.31;;;4.72;100.00
15634;BME280;14654;48.898;8.308;2023-04-15T05:32:33;99382.44;;;4.89;100.00
15634;BME280;14654;48.898;8.308;2023-04-15T05:34:58;99390.97;;;5.10;100.00
15634;BME280;14654;48.898;8.308;2023-04-15T05:37:23;99385.81;;;5.36;100.00
15634;BME280;14654;48.898;8.308;2023-04-15T05:39:49;99389.09;;;5.82;100.00
15634;BME280;14654;48.898;8.308;2023-04-15T05:42:14;99383.50;;;6.62;100.00
15634;BME280;14654;48.898;8.308;2023-04-15T05:44:39;99384.34;;;7.59;98.13
15634;BME280;14654;48.898;8.308;2023-04-15T05:47:05;99388.31;;;8.51;94.69
15634;BME280;14654;48.898;8.308;2023-04-15T05:49:31;99387.00;;;9.32;91.73
15634;BME280;14654;48.898;8.308;2023-04-15T05:51:57;99383.06;;;10.01;89.18
15634;BME280;14654;48.898;8.308;2023-04-15T05:54:22;99392.44;;;10.46;87.33
15634;BME280;14654;48.898;8.308;2023-04-15T05:56:48;99390.19;;;10.70;86.39
15634;BME280;14654;48.898;8.308;2023-04-15T05:59:13;99391.97;;;11.03;85.44
15634;BME280;14654;48.898;8.308;2023-04-15T06:01:38;99392.72;;;11.41;84.08
15634;BME280;14654;48.898;8.308;2023-04-15T06:04:04;99392.03;;;11.66;83.15
15634;BME280;14654;48.898;8.308;2023-04-15T06:06:29;99391.19;;;11.95;82.32
15634;BME280;14654;48.898;8.308;2023-04-15T06:08:56;99389.06;;;12.40;81.01
15634;BME280;14654;48.898;8.308;2023-04-15T06:11:22;99389.69;;;12.75;79.78
15634;BME280;14654;48.898;8.308;2023-04-15T06:13:47;99390.06;;;12.91;78.88
15634;BME280;14654;48.898;8.308;2023-04-15T06:16:13;99393.63;;;12.87;78.98
15634;BME280;14654;48.898;8.308;2023-04-15T06:18:38;99391.44;;;13.01;78.45
15634;BME280;14654;48.898;8.308;2023-04-15T06:21:04;99398.88;;;13.37;77.69
15634;BME280;14654;48.898;8.308;2023-04-15T06:23:29;99394.03;;;13.77;76.44
15634;BME280;14654;48.898;8.308;2023-04-15T06:25:55;99398.22;;;14.05;75.51
15634;BME280;14654;48.898;8.308;2023-04-15T06:28:20;99393.38;;;14.18;74.36
15634;BME280;14654;48.898;8.308;2023-04-15T06:30:45;99389.28;;;14.35;74.23
15634;BME280;14654;48.898;8.308;2023-04-15T06:33:11;99388.88;;;14.68;73.54
15634;BME280;14654;48.898;8.308;2023-04-15T06:35:36;99387.22;;;15.08;72.31
15634;BME280;14654;48.898;8.308;2023-04-15T06:38:01;99389.75;;;15.51;70.77
15634;BME280;14654;48.898;8.308;2023-04-15T06:40:27;99388.78;;;15.53;69.60
15634;BME280;14654;48.898;8.308;2023-04-15T06:42:52;99389.84;;;15.08;69.69
15634;BME280;14654;48.898;8.308;2023-04-15T06:45:18;99400.41;;;14.60;70.37
15634;BME280;14654;48.898;8.308;2023-04-15T06:47:43;99401.78;;;14.02;71.12
15634;BME280;14654;48.898;8.308;2023-04-15T06:50:09;99406.03;;;13.56;72.31
15634;BME280;14654;48.898;8.308;2023-04-15T06:52:34;99397.47;;;13.27;73.18
15634;BME280;14654;48.898;8.308;2023-04-15T06:55:00;99392.00;;;13.09;73.48
15634;BME280;14654;48.898;8.308;2023-04-15T06:57:26;99394.38;;;12.90;73.98
15634;BME280;14654;48.898;8.308;2023-04-15T06:59:53;99397.81;;;12.64;74.28
15634;BME280;14654;48.898;8.308;2023-04-15T07:02:19;99398.66;;;12.38;75.22
15634;BME280;14654;48.898;8.308;2023-04-15T07:04:44;99401.97;;;12.13;75.99
15634;BME280;14654;48.898;8.308;2023-04-15T07:07:09;99398.28;;;11.90;76.84
15634;BME280;14654;48.898;8.308;2023-04-15T07:09:35;99399.88;;;11.64;77.43
15634;BME280;14654;48.898;8.308;2023-04-15T07:12:00;99396.88;;;11.47;78.20
15634;BME280;14654;48.898;8.308;2023-04-15T07:14:25;99399.63;;;11.40;79.07
15634;BME280;14654;48.898;8.308;2023-04-15T07:16:51;99400.66;;;11.35;79.63
15634;BME280;14654;48.898;8.308;2023-04-15T07:19:17;99395.59;;;11.30;80.00
15634;BME280;14654;48.898;8.308;2023-04-15T07:21:42;99398.41;;;11.21;79.24
15634;BME280;14654;48.898;8.308;2023-04-15T07:24:08;99393.63;;;11.05;78.73
15634;BME280;14654;48.898;8.308;2023-04-15T07:26:34;99390.19;;;11.05;78.85
15634;BME280;14654;48.898;8.308;2023-04-15T07:29:00;99392.72;;;11.08;78.52
15634;BME280;14654;48.898;8.308;2023-04-15T07:31:25;99396.13;;;11.10;77.91
15634;BME280;14654;48.898;8.308;2023-04-15T07:33:51;99396.22;;;11.05;77.34
15634;BME280;14654;48.898;8.308;2023-04-15T07:36:17;99394.50;;;11.04;77.59
15634;BME280;14654;48.898;8.308;2023-04-15T07:38:43;99397.91;;;11.06;77.41
15634;BME280;14654;48.898;8.308;2023-04-15T07:41:08;99398.91;;;11.02;77.83
15634;BME280;14654;48.898;8.308;2023-04-15T07:43:34;99404.09;;;11.01;78.17
15634;BME280;14654;48.898;8.308;2023-04-15T07:46:00;99399.66;;;11.06;78.48
15634;BME280;14654;48.898;8.308;2023-04-15T07:48:25;99404.59;;;11.15;78.68
15634;BME280;14654;48.898;8.308;2023-04-15T07:50:50;99403.31;;;11.32;78.67
15634;BME280;14654;48.898;8.308;2023-04-15T07:53:16;99410.84;;;11.41;78.40
15634;BME280;14654;48.898;8.308;2023-04-15T07:55:41;99414.22;;;11.44;77.82
15634;BME280;14654;48.898;8.308;2023-04-15T07:58:06;99413.03;;;11.56;77.75
15634;BME280;14654;48.898;8.308;2023-04-15T08:00:31;99414.56;;;11.64;77.41
15634;BME280;14654;48.898;8.308;2023-04-15T08:02:57;99419.69;;;11.65;76.95
15634;BME280;14654;48.898;8.308;2023-04-15T08:05:23;99416.25;;;11.65;76.54
15634;BME280;14654;48.898;8.308;2023-04-15T08:07:49;99416.13;;;11.69;76.16
15634;BME280;14654;48.898;8.308;2023-04-15T08:10:15;99418.63;;;11.72;75.48
15634;BME280;14654;48.898;8.308;2023-04-15T08:12:41;99412.50;;;11.75;74.87
15634;BME280;14654;48.898;8.308;2023-04-15T08:15:07;99416.19;;;11.68;74.17
15634;BME280;14654;48.898;8.308;2023-04-15T08:17:33;99417.75;;;11.73;74.32
15634;BME280;14654;48.898;8.308;2023-04-15T08:19:59;99422.78;;;11.80;74.26
15634;BME280;14654;48.898;8.308;2023-04-15T08:22:24;99423.34;;;11.89;74.13
15634;BME280;14654;48.898;8.308;2023-04-15T08:24:50;99425.50;;;12.07;74.16
15634;BME280;14654;48.898;8.308;2023-04-15T08:27:15;99429.28;;;12.25;74.27
15634;BME280;14654;48.898;8.308;2023-04-15T08:29:41;99421.09;;;12.39;73.65
15634;BME280;14654;48.898;8.308;2023-04-15T08:32:07;99431.03;;;12.53;73.34
15634;BME280;14654;48.898;8.308;2023-04-15T08:34:33;99433.78;;;12.76;73.15
15634;BME280;14654;48.898;8.308;2023-04-15T08:36:59;99430.56;;;12.95;72.75
15634;BME280;14654;48.898;8.308;2023-04-15T08:39:25;99429.88;;;13.17;72.16
15634;BME280;14654;48.898;8.308;2023-04-15T08:42:01;99436.16;;;13.36;71.61
15634;BME280;14654;48.898;8.308;2023-04-15T08:44:29;99437.75;;;13.40;71.35
15634;BME280;14654;48.898;8.308;2023-04-15T08:47:00;99446.84;;;13.54;71.11
15634;BME280;14654;48.898;8.308;2023-04-15T08:49:27;99444.56;;;13.70;70.75
15634;BME280;14654;48.898;8.308;2023-04-15T08:51:53;99437.13;;;13.84;70.48
15634;BME280;14654;48.898;8.308;2023-04-15T08:54:21;99442.31;;;14.08;70.01
15634;BME280;14654;48.898;8.308;2023-04-15T08:56:47;99437.09;;;14.32;69.71
15634;BME280;14654;48.898;8.308;2023-04-15T08:59:13;99432.75;;;14.55;69.74
15634;BME280;14654;48.898;8.308;2023-04-15T09:01:39;99428.63;;;14.73;69.51
15634;BME280;14654;48.898;8.308;2023-04-15T09:04:05;99433.06;;;14.91;69.56
15634;BME280;14654;48.898;8.308;2023-04-15T09:06:32;99429.84;;;15.07;69.26
15634;BME280;14654;48.898;8.308;2023-04-15T09:08:57;99433.91;;;15.14;68.94
15634;BME280;14654;48.898;8.308;2023-04-15T09:11:22;99429.66;;;15.32;69.05
15634;BME280;14654;48.898;8.308;2023-04-15T09:13:48;99428.75;;;15.54;68.54
15634;BME280;14654;48.898;8.308;2023-04-15T09:16:14;99421.88;;;15.72;68.20
15634;BME280;14654;48.898;8.308;2023-04-15T09:18:39;99432.56;;;15.87;67.73
15634;BME280;14654;48.898;8.308;2023-04-15T09:21:07;99434.56;;;16.00;67.14
15634;BME280;14654;48.898;8.308;2023-04-15T09:23:33;99430.75;;;16.08;64.79
15634;BME280;14654;48.898;8.308;2023-04-15T09:26:00;99431.19;;;16.18;64.77
15634;BME280;14654;48.898;8.308;2023-04-15T09:28:27;99437.53;;;16.31;64.77
15634;BME280;14654;48.898;8.308;2023-04-15T09:30:59;99441.22;;;16.46;64.71
15634;BME280;14654;48.898;8.308;2023-04-15T09:33:26;99443.94;;;16.62;64.17
15634;BME280;14654;48.898;8.308;2023-04-15T09:36:00;99438.84;;;16.78;64.06
15634;BME280;14654;48.898;8.308;2023-04-15T09:38:26;99439.63;;;16.98;63.75
15634;BME280;14654;48.898;8.308;2023-04-15T09:40:51;99440.25;;;17.03;62.38
15634;BME280;14654;48.898;8.308;2023-04-15T09:43:17;99446.72;;;17.13;62.68
15634;BME280;14654;48.898;8.308;2023-04-15T09:45:49;99442.19;;;17.34;62.47
15634;BME280;14654;48.898;8.308;2023-04-15T09:48:24;99445.69;;;17.51;62.18
15634;BME280;14654;48.898;8.308;2023-04-15T09:50:56;99452.84;;;17.65;61.54
15634;BME280;14654;48.898;8.308;2023-04-15T09:53:23;99447.38;;;17.70;60.90
15634;BME280;14654;48.898;8.308;2023-04-15T09:58:26;99451.78;;;17.69;60.86
15634;BME280;14654;48.898;8.308;2023-04-15T10:00:53;99445.50;;;17.89;60.94
15634;BME280;14654;48.898;8.308;2023-04-15T10:05:48;99456.38;;;18.15;60.28
15634;BME280;14654;48.898;8.308;2023-04-15T10:08:16;99454.09;;;18.25;60.16
15634;BME280;14654;48.898;8.308;2023-04-15T10:10:42;99455.44;;;18.32;59.42
15634;BME280;14654;48.898;8.308;2023-04-15T10:13:08;99455.22;;;18.37;58.99
15634;BME280;14654;48.898;8.308;2023-04-15T10:15:35;99467.81;;;18.30;59.37
15634;BME280;14654;48.898;8.308;2023-04-15T10:18:02;99465.28;;;17.77;59.97
15634;BME280;14654;48.898;8.308;2023-04-15T10:20:29;99472.22;;;17.78;60.15
15634;BME280;14654;48.898;8.308;2023-04-15T10:22:55;99468.31;;;17.52;60.63
15634;BME280;14654;48.898;8.308;2023-04-15T10:25:21;99469.50;;;17.46;61.38
15634;BME280;14654;48.898;8.308;2023-04-15T10:27:48;99469.41;;;17.48;61.36
15634;BME280;14654;48.898;8.308;2023-04-15T10:30:16;99467.94;;;17.60;61.37
15634;BME280;14654;48.898;8.308;2023-04-15T10:32:42;99475.94;;;17.57;61.12
15634;BME280;14654;48.898;8.308;2023-04-15T10:35:09;99471.47;;;17.59;60.95
15634;BME280;14654;48.898;8.308;2023-04-15T10:37:36;99472.78;;;17.67;60.91
15634;BME280;14654;48.898;8.308;2023-04-15T10:42:58;99471.16;;;17.65;60.87
15634;BME280;14654;48.898;8.308;2023-04-15T10:45:27;99475.31;;;17.69;60.88
15634;BME280;14654;48.898;8.308;2023-04-15T10:47:57;99476.44;;;17.81;60.98
15634;BME280;14654;48.898;8.308;2023-04-15T10:50:25;99478.03;;;18.01;61.12
15634;BME280;14654;48.898;8.308;2023-04-15T10:52:50;99484.50;;;18.27;60.77
15634;BME280;14654;48.898;8.308;2023-04-15T10:57:50;99476.28;;;18.18;60.10
15634;BME280;14654;48.898;8.308;2023-04-15T11:00:18;99482.31;;;18.20;60.71
15634;BME280;14654;48.898;8.308;2023-04-15T11:02:54;99493.66;;;18.36;60.70
15634;BME280;14654;48.898;8.308;2023-04-15T11:06:06;99477.94;;;18.52;60.98
15634;BME280;14654;48.898;8.308;2023-04-15T11:08:11;99486.53;;;18.54;60.59
15634;BME280;14654;48.898;8.308;2023-04-15T11:13:12;99487.25;;;18.58;60.55
15634;BME280;14654;48.898;8.308;2023-04-15T11:15:41;99486.72;;;18.67;59.45
15634;BME280;14654;48.898;8.308;2023-04-15T11:18:11;99493.00;;;18.65;58.87
15634;BME280;14654;48.898;8.308;2023-04-15T11:20:38;99492.63;;;18.71;58.90
15634;BME280;14654;48.898;8.308;2023-04-15T11:23:04;99491.00;;;18.84;58.46
15634;BME280;14654;48.898;8.308;2023-04-15T11:25:31;99501.50;;;18.36;56.97
15634;BME280;14654;48.898;8.308;2023-04-15T11:27:58;99499.47;;;18.25;57.30
15634;BME280;14654;48.898;8.308;2023-04-15T11:30:26;99496.97;;;18.06;58.25
15634;BME280;14654;48.898;8.308;2023-04-15T11:32:53;99506.41;;;18.42;58.52
15634;BME280;14654;48.898;8.308;2023-04-15T11:35:19;99512.59;;;18.41;57.75
15634;BME280;14654;48.898;8.308;2023-04-15T11:37:45;99500.47;;;18.39;57.36
15634;BME280;14654;48.898;8.308;2023-04-15T11:40:11;99514.75;;;18.33;57.66
15634;BME280;14654;48.898;8.308;2023-04-15T11:42:37;99509.66;;;17.96;57.77
15634;BME280;14654;48.898;8.308;2023-04-15T11:45:10;99506.16;;;17.80;58.08
15634;BME280;14654;48.898;8.308;2023-04-15T11:47:36;99509.91;;;17.92;59.29
15634;BME280;14654;48.898;8.308;2023-04-15T11:50:21;99507.56;;;18.21;59.23
15634;BME280;14654;48.898;8.308;2023-04-15T11:52:58;99507.75;;;18.34;59.42
15634;BME280;14654;48.898;8.308;2023-04-15T11:55:24;99508.19;;;18.42;58.25
15634;BME280;14654;48.898;8.308;2023-04-15T12:00:32;99510.63;;;18.45;57.44
15634;BME280;14654;48.898;8.308;2023-04-15T12:06:08;99513.63;;;18.05;57.05
15634;BME280;14654;48.898;8.308;2023-04-15T12:11:13;99528.63;;;17.84;57.26
15634;BME280;14654;48.898;8.308;2023-04-15T12:13:43;99521.41;;;17.54;56.07
15634;BME280;14654;48.898;8.308;2023-04-15T12:16:09;99531.47;;;17.27;56.17
15634;BME280;14654;48.898;8.308;2023-04-15T12:18:38;99529.47;;;17.14;55.86
15634;BME280;14654;48.898;8.308;2023-04-15T12:21:08;99526.72;;;17.35;56.81
15634;BME280;14654;48.898;8.308;2023-04-15T12:23:36;99531.09;;;17.34;54.89
15634;BME280;14654;48.898;8.308;2023-04-15T12:26:05;99532.53;;;17.05;56.09
15634;BME280;14654;48.898;8.308;2023-04-15T12:28:34;99540.88;;;16.75;56.21
15634;BME280;14654;48.898;8.308;2023-04-15T12:31:06;99544.03;;;16.43;56.38
15634;BME280;14654;48.898;8.308;2023-04-15T12:33:33;99542.41;;;16.60;56.80
15634;BME280;14654;48.898;8.308;2023-04-15T12:35:58;99540.88;;;16.75;56.37
15634;BME280;14654;48.898;8.308;2023-04-15T12:38:23;99547.06;;;16.91;54.92
15634;BME280;14654;48.898;8.308;2023-04-15T12:40:49;99556.19;;;16.83;54.51
15634;BME280;14654;48.898;8.308;2023-04-15T12:43:15;99550.69;;;16.70;53.90
15634;BME280;14654;48.898;8.308;2023-04-15T12:45:40;99555.41;;;16.81;54.81
15634;BME280;14654;48.898;8.308;2023-04-15T12:48:06;99552.34;;;16.90;52.71
15634;BME280;14654;48.898;8.308;2023-04-15T12:50:33;99559.72;;;17.01;52.55
15634;BME280;14654;48.898;8.308;2023-04-15T12:52:59;99560.38;;;17.06;53.13
15634;BME280;14654;48.898;8.308;2023-04-15T12:55:24;99565.44;;;17.09;50.72
15634;BME280;14654;48.898;8.308;2023-04-15T12:57:49;99565.44;;;17.09;45.97
15634;BME280;14654;48.898;8.308;2023-04-15T13:00:15;99559.81;;;17.36;46.76
15634;BME280;14654;48.898;8.308;2023-04-15T13:02:42;99564.44;;;17.48;48.41
15634;BME280;14654;48.898;8.308;2023-04-15T13:05:08;99562.34;;;17.90;50.02
15634;BME280;14654;48.898;8.308;2023-04-15T13:07:33;99560.06;;;18.02;48.79
15634;BME280;14654;48.898;8.308;2023-04-15T13:09:59;99565.16;;;18.05;48.69
15634;BME280;14654;48.898;8.308;2023-04-15T13:12:25;99573.91;;;17.86;48.73
15634;BME280;14654;48.898;8.308;2023-04-15T13:14:51;99559.81;;;18.40;49.37
15634;BME280;14654;48.898;8.308;2023-04-15T13:17:16;99559.34;;;18.65;49.56